King Salmon, AK (99549)

5:35 AM AKST on March 06, 2015 (GMT -0900)
Port Heiden | Change Station
CLOSE
Current Station
Airport
Location: Port Heiden,
Elevation: 95 ft
Nearby Weather Stations
Active Advisory: Winter Weather Advisory Active Notice: Record Report

Elev 95 ft 56.96 °N, 158.63 °W | Updated 19 minutes ago

Scattered Clouds
Scattered Clouds
28 °F
Feels Like 22 °F
N
6
Wind Variable Wind from SSE

Today
High -- | Low -- °F
--% Chance of Precip.
Yesterday
High -- | Low -- °F
Precip. -- in
8:14 AM 7:18 PM
Full, 99% visible
Pressure 30.22 in
Visibility 10.0 miles
Clouds Scattered Clouds 2900 ft
Windchill 22 °F
Dew Point 21 °F
Humidity 74%
Rainfall 0.00 in
Snow Depth Not available.
UV 0 out of 12
Pollen Not available.
Air Quality Not available.
Flu Activity Not available.
METAR PAPH 061416Z AUTO 16005KT 10SM SCT029 M02/M06 A3022 RMK AO1

More Conditions Fewer Conditions

Pressure 30.22 in
Visibility 10.0 miles
Clouds Scattered Clouds 2900 ft
Windchill 22 °F
Dew Point 21 °F
Humidity 74%
Rainfall 0.00 in
Snow Depth Not available.
UV 0 out of 12
Pollen Not available.
Air Quality Not available.
Flu Activity Not available.
METAR PAPH 061416Z AUTO 16005KT 10SM SCT029 M02/M06 A3022 RMK AO1

More Conditions Fewer Conditions

10-Day Weather Forecast

Almanac

Astronomy

Mar. 06, 2015 Rise Set
Actual Time
Civil Twilight
Nautical Twilight
Astronomical Twilight
Moon
Length of Visible Light
Length of Day
Tomorrow will be .
, % of the Moon is Illuminated

Today's Extremes

State Highs State Lows

Community

WunderPhotos

Upload Photos

1,803,283 photos uploaded!

WunderBlogs® & News

Nearby

Air Quality

  Air Quality AQ Index Pollutant
Not available.

Snow Depth

Station Depth Elevation

Earthquake Activity

City Distance Mag. Time & Date
Minimum magnitude displayed is 2.5.

Coastal Water Temperatures

Place Temperature

Nearby Weather Stations

Winter Weather Advisory
Statement as of 4:37 AM AKST on March 06, 2015

... Winter Weather Advisory for snow and blowing snow remains in
effect from noon today to 6 am akst Saturday north of Dillingham...

* location... north of Dillingham

* snow... 5 to 8 inches.

* Visibility... less than one half mile at times... particularly
in the vicinity of Koliganek and New Stuyahok.

* Wind... south to southwest 20 to 35 mph.

* Timing... snowfall and increasing southerly winds will begin
developing from the west this afternoon... and spread throughout
northern Bristol Bay area by this evening. The majority of
snowfall will be this afternoon. However the blowing snow
conditions are expected to persist until early Saturday morning.

Precautionary/preparedness actions...

A Winter Weather Advisory for snow and blowing snow means that
visibilities will be limited due to a combination of falling and
blowing snow. Use caution when traveling... especially in open
areas.